sensor_id;sensor_type;location;lat;lon;timestamp;P1;durP1;ratioP1;P2;durP2;ratioP2
60306;SDS011;46155;52.364;6.580;2023-10-13T03:03:14;66.33;;;60.07;;
60306;SDS011;46155;52.364;6.580;2023-10-13T03:05:43;69.33;;;63.13;;
60306;SDS011;46155;52.364;6.580;2023-10-13T03:08:08;61.17;;;55.37;;
60306;SDS011;46155;52.364;6.580;2023-10-13T03:10:36;66.97;;;61.00;;
60306;SDS011;46155;52.364;6.580;2023-10-13T03:13:05;66.23;;;60.10;;
60306;SDS011;46155;52.364;6.580;2023-10-13T03:15:33;62.57;;;56.13;;
60306;SDS011;46155;52.364;6.580;2023-10-13T03:18:00;63.80;;;57.97;;
60306;SDS011;46155;52.364;6.580;2023-10-13T03:20:26;60.33;;;53.90;;
60306;SDS011;46155;52.364;6.580;2023-10-13T03:22:58;58.23;;;52.73;;
60306;SDS011;46155;52.364;6.580;2023-10-13T03:25:23;62.33;;;56.40;;
60306;SDS011;46155;52.364;6.580;2023-10-13T03:27:50;59.47;;;54.27;;
60306;SDS011;46155;52.364;6.580;2023-10-13T03:30:16;60.13;;;54.40;;
60306;SDS011;46155;52.364;6.580;2023-10-13T03:32:42;60.70;;;54.87;;
60306;SDS011;46155;52.364;6.580;2023-10-13T03:35:18;62.33;;;56.53;;
60306;SDS011;46155;52.364;6.580;2023-10-13T03:37:50;61.30;;;56.03;;
60306;SDS011;46155;52.364;6.580;2023-10-13T03:40:19;61.10;;;55.90;;
60306;SDS011;46155;52.364;6.580;2023-10-13T03:42:49;59.13;;;54.10;;
60306;SDS011;46155;52.364;6.580;2023-10-13T03:45:44;57.73;;;52.50;;
60306;SDS011;46155;52.364;6.580;2023-10-13T03:53:27;61.23;;;55.33;;
60306;SDS011;46155;52.364;6.580;2023-10-13T03:55:58;55.47;;;50.57;;
60306;SDS011;46155;52.364;6.580;2023-10-13T03:58:39;54.20;;;49.20;;
60306;SDS011;46155;52.364;6.580;2023-10-13T04:01:11;55.17;;;50.43;;
60306;SDS011;46155;52.364;6.580;2023-10-13T04:03:39;57.00;;;51.77;;
60306;SDS011;46155;52.364;6.580;2023-10-13T04:06:21;53.50;;;48.97;;
60306;SDS011;46155;52.364;6.580;2023-10-13T04:09:07;52.50;;;47.93;;
60306;SDS011;46155;52.364;6.580;2023-10-13T04:12:02;56.67;;;51.53;;
60306;SDS011;46155;52.364;6.580;2023-10-13T04:14:36;53.37;;;47.97;;
60306;SDS011;46155;52.364;6.580;2023-10-13T04:17:21;55.33;;;49.93;;
60306;SDS011;46155;52.364;6.580;2023-10-13T04:19:53;55.10;;;50.67;;
60306;SDS011;46155;52.364;6.580;2023-10-13T04:25:12;53.77;;;49.10;;
60306;SDS011;46155;52.364;6.580;2023-10-13T04:28:10;56.27;;;51.53;;
60306;SDS011;46155;52.364;6.580;2023-10-13T04:38:49;59.30;;;54.47;;
60306;SDS011;46155;52.364;6.580;2023-10-13T04:41:26;54.77;;;50.27;;
60306;SDS011;46155;52.364;6.580;2023-10-13T04:44:07;59.90;;;54.50;;
60306;SDS011;46155;52.364;6.580;2023-10-13T04:46:52;57.03;;;51.67;;
60306;SDS011;46155;52.364;6.580;2023-10-13T04:49:25;53.43;;;48.77;;
60306;SDS011;46155;52.364;6.580;2023-10-13T04:52:03;55.47;;;50.47;;
60306;SDS011;46155;52.364;6.580;2023-10-13T04:54:33;52.17;;;48.07;;
60306;SDS011;46155;52.364;6.580;2023-10-13T04:57:31;54.77;;;50.23;;
60306;SDS011;46155;52.364;6.580;2023-10-13T05:00:11;52.83;;;48.30;;
60306;SDS011;46155;52.364;6.580;2023-10-13T05:02:39;59.53;;;54.70;;
60306;SDS011;46155;52.364;6.580;2023-10-13T05:05:13;57.03;;;51.60;;
60306;SDS011;46155;52.364;6.580;2023-10-13T05:07:39;55.73;;;51.10;;
60306;SDS011;46155;52.364;6.580;2023-10-13T05:10:24;57.27;;;52.37;;
60306;SDS011;46155;52.364;6.580;2023-10-13T05:13:08;55.37;;;50.80;;
60306;SDS011;46155;52.364;6.580;2023-10-13T05:15:52;57.30;;;52.73;;
60306;SDS011;46155;52.364;6.580;2023-10-13T05:18:36;57.13;;;52.17;;
60306;SDS011;46155;52.364;6.580;2023-10-13T05:21:20;72.70;;;66.70;;
60306;SDS011;46155;52.364;6.580;2023-10-13T05:24:05;60.20;;;55.13;;
60306;SDS011;46155;52.364;6.580;2023-10-13T05:26:49;57.57;;;53.23;;
60306;SDS011;46155;52.364;6.580;2023-10-13T05:29:37;54.53;;;50.17;;
60306;SDS011;46155;52.364;6.580;2023-10-13T05:32:22;52.07;;;47.50;;
60306;SDS011;46155;52.364;6.580;2023-10-13T05:35:06;57.27;;;52.43;;
60306;SDS011;46155;52.364;6.580;2023-10-13T05:37:50;61.03;;;55.92;;
60306;SDS011;46155;52.364;6.580;2023-10-13T05:40:34;55.73;;;50.97;;
60306;SDS011;46155;52.364;6.580;2023-10-13T05:43:18;52.80;;;48.47;;
60306;SDS011;46155;52.364;6.580;2023-10-13T05:46:03;54.47;;;50.70;;
60306;SDS011;46155;52.364;6.580;2023-10-13T05:48:47;51.03;;;47.27;;
60306;SDS011;46155;52.364;6.580;2023-10-13T05:51:22;51.40;;;47.20;;
60306;SDS011;46155;52.364;6.580;2023-10-13T05:54:06;53.67;;;48.97;;
60306;SDS011;46155;52.364;6.580;2023-10-13T05:59:24;56.53;;;52.37;;
60306;SDS011;46155;52.364;6.580;2023-10-13T06:02:08;59.40;;;54.33;;
60306;SDS011;46155;52.364;6.580;2023-10-13T06:04:52;68.60;;;63.03;;
60306;SDS011;46155;52.364;6.580;2023-10-13T06:07:36;63.17;;;58.43;;
60306;SDS011;46155;52.364;6.580;2023-10-13T06:10:20;70.33;;;64.33;;
60306;SDS011;46155;52.364;6.580;2023-10-13T06:13:04;62.93;;;58.07;;
60306;SDS011;46155;52.364;6.580;2023-10-13T06:15:48;59.50;;;54.73;;
60306;SDS011;46155;52.364;6.580;2023-10-13T06:18:32;57.63;;;52.90;;
60306;SDS011;46155;52.364;6.580;2023-10-13T06:21:16;50.67;;;46.67;;
60306;SDS011;46155;52.364;6.580;2023-10-13T06:24:05;50.33;;;46.07;;
60306;SDS011;46155;52.364;6.580;2023-10-13T06:26:49;52.90;;;48.90;;
60306;SDS011;46155;52.364;6.580;2023-10-13T06:29:33;50.83;;;46.63;;
60306;SDS011;46155;52.364;6.580;2023-10-13T06:31:59;47.77;;;43.90;;
60306;SDS011;46155;52.364;6.580;2023-10-13T06:34:26;52.60;;;48.30;;
60306;SDS011;46155;52.364;6.580;2023-10-13T06:37:16;51.43;;;47.00;;
60306;SDS011;46155;52.364;6.580;2023-10-13T06:39:54;52.30;;;48.27;;
60306;SDS011;46155;52.364;6.580;2023-10-13T06:42:22;51.53;;;47.33;;
60306;SDS011;46155;52.364;6.580;2023-10-13T06:44:52;47.50;;;43.57;;
60306;SDS011;46155;52.364;6.580;2023-10-13T06:47:18;49.37;;;44.87;;
60306;SDS011;46155;52.364;6.580;2023-10-13T06:49:45;45.57;;;42.03;;
60306;SDS011;46155;52.364;6.580;2023-10-13T06:52:13;45.00;;;41.33;;
60306;SDS011;46155;52.364;6.580;2023-10-13T06:54:39;44.57;;;41.27;;
60306;SDS011;46155;52.364;6.580;2023-10-13T06:57:06;49.93;;;45.03;;
60306;SDS011;46155;52.364;6.580;2023-10-13T06:59:39;42.77;;;39.37;;
60306;SDS011;46155;52.364;6.580;2023-10-13T07:02:04;48.63;;;45.27;;
60306;SDS011;46155;52.364;6.580;2023-10-13T07:04:31;44.83;;;41.13;;
60306;SDS011;46155;52.364;6.580;2023-10-13T07:06:56;44.90;;;41.70;;
60306;SDS011;46155;52.364;6.580;2023-10-13T07:09:21;39.33;;;36.53;;
60306;SDS011;46155;52.364;6.580;2023-10-13T07:11:59;41.87;;;38.40;;
60306;SDS011;46155;52.364;6.580;2023-10-13T07:14:26;44.40;;;40.17;;
60306;SDS011;46155;52.364;6.580;2023-10-13T07:16:55;41.00;;;37.50;;
60306;SDS011;46155;52.364;6.580;2023-10-13T07:19:27;40.80;;;37.70;;
60306;SDS011;46155;52.364;6.580;2023-10-13T07:21:59;42.10;;;38.23;;
60306;SDS011;46155;52.364;6.580;2023-10-13T07:24:45;40.60;;;37.43;;
60306;SDS011;46155;52.364;6.580;2023-10-13T07:27:21;41.03;;;37.93;;
60306;SDS011;46155;52.364;6.580;2023-10-13T07:29:51;42.33;;;39.07;;
60306;SDS011;46155;52.364;6.580;2023-10-13T07:32:22;44.03;;;40.63;;
60306;SDS011;46155;52.364;6.580;2023-10-13T07:34:55;43.40;;;40.30;;
60306;SDS011;46155;52.364;6.580;2023-10-13T07:37:21;40.67;;;37.53;;
60306;SDS011;46155;52.364;6.580;2023-10-13T07:39:53;44.23;;;41.13;;
60306;SDS011;46155;52.364;6.580;2023-10-13T07:42:22;44.00;;;40.57;;
60306;SDS011;46155;52.364;6.580;2023-10-13T07:44:49;43.27;;;40.07;;
60306;SDS011;46155;52.364;6.580;2023-10-13T07:47:14;45.43;;;41.80;;
60306;SDS011;46155;52.364;6.580;2023-10-13T07:49:40;45.00;;;41.80;;
60306;SDS011;46155;52.364;6.580;2023-10-13T07:52:09;45.67;;;42.00;;
60306;SDS011;46155;52.364;6.580;2023-10-13T07:54:45;48.40;;;44.90;;
60306;SDS011;46155;52.364;6.580;2023-10-13T07:57:21;46.83;;;43.63;;
60306;SDS011;46155;52.364;6.580;2023-10-13T07:59:54;46.70;;;43.13;;
60306;SDS011;46155;52.364;6.580;2023-10-13T08:02:31;49.40;;;45.50;;
60306;SDS011;46155;52.364;6.580;2023-10-13T08:05:18;49.23;;;45.70;;
60306;SDS011;46155;52.364;6.580;2023-10-13T08:07:54;47.10;;;43.73;;
60306;SDS011;46155;52.364;6.580;2023-10-13T08:10:21;43.97;;;40.37;;
60306;SDS011;46155;52.364;6.580;2023-10-13T08:12:54;45.70;;;42.07;;
60306;SDS011;46155;52.364;6.580;2023-10-13T08:15:21;47.93;;;44.57;;
60306;SDS011;46155;52.364;6.580;2023-10-13T08:17:56;47.27;;;43.53;;
60306;SDS011;46155;52.364;6.580;2023-10-13T08:20:23;49.67;;;46.23;;
60306;SDS011;46155;52.364;6.580;2023-10-13T08:22:49;45.50;;;42.33;;
60306;SDS011;46155;52.364;6.580;2023-10-13T08:25:14;44.70;;;41.40;;
60306;SDS011;46155;52.364;6.580;2023-10-13T08:27:46;47.40;;;44.03;;
60306;SDS011;46155;52.364;6.580;2023-10-13T08:30:35;44.67;;;40.97;;
60306;SDS011;46155;52.364;6.580;2023-10-13T08:33:16;43.17;;;40.03;;
60306;SDS011;46155;52.364;6.580;2023-10-13T08:35:42;43.77;;;40.10;;
60306;SDS011;46155;52.364;6.580;2023-10-13T08:38:19;44.47;;;40.83;;
60306;SDS011;46155;52.364;6.580;2023-10-13T08:40:53;48.50;;;44.40;;
60306;SDS011;46155;52.364;6.580;2023-10-13T08:43:38;43.87;;;39.77;;
60306;SDS011;46155;52.364;6.580;2023-10-13T08:46:10;44.87;;;40.93;;
60306;SDS011;46155;52.364;6.580;2023-10-13T08:48:49;41.57;;;38.47;;
60306;SDS011;46155;52.364;6.580;2023-10-13T08:51:17;43.27;;;39.50;;
60306;SDS011;46155;52.364;6.580;2023-10-13T08:54:04;41.93;;;38.47;;
60306;SDS011;46155;52.364;6.580;2023-10-13T08:56:43;45.43;;;41.73;;
60306;SDS011;46155;52.364;6.580;2023-10-13T08:59:12;45.10;;;40.90;;
60306;SDS011;46155;52.364;6.580;2023-10-13T09:01:47;41.23;;;37.60;;
60306;SDS011;46155;52.364;6.580;2023-10-13T09:04:25;43.27;;;39.47;;
60306;SDS011;46155;52.364;6.580;2023-10-13T09:07:02;40.13;;;37.00;;
60306;SDS011;46155;52.364;6.580;2023-10-13T09:12:00;40.33;;;36.73;;
60306;SDS011;46155;52.364;6.580;2023-10-13T09:14:51;37.80;;;34.83;;
60306;SDS011;46155;52.364;6.580;2023-10-13T09:17:23;41.67;;;37.77;;
60306;SDS011;46155;52.364;6.580;2023-10-13T09:22:45;39.77;;;35.87;;
60306;SDS011;46155;52.364;6.580;2023-10-13T09:25:29;37.83;;;34.53;;
60306;SDS011;46155;52.364;6.580;2023-10-13T09:27:59;35.83;;;32.63;;
60306;SDS011;46155;52.364;6.580;2023-10-13T09:30:46;36.20;;;33.13;;
60306;SDS011;46155;52.364;6.580;2023-10-13T09:33:13;36.23;;;32.47;;
60306;SDS011;46155;52.364;6.580;2023-10-13T09:35:43;33.07;;;30.53;;
60306;SDS011;46155;52.364;6.580;2023-10-13T09:38:14;36.57;;;32.70;;
60306;SDS011;46155;52.364;6.580;2023-10-13T09:40:40;36.93;;;33.10;;
60306;SDS011;46155;52.364;6.580;2023-10-13T09:43:14;31.83;;;28.97;;
60306;SDS011;46155;52.364;6.580;2023-10-13T09:45:43;28.90;;;26.20;;
60306;SDS011;46155;52.364;6.580;2023-10-13T09:48:31;29.07;;;26.47;;
60306;SDS011;46155;52.364;6.580;2023-10-13T09:50:59;27.50;;;24.97;;
60306;SDS011;46155;52.364;6.580;2023-10-13T09:53:27;31.03;;;28.63;;
60306;SDS011;46155;52.364;6.580;2023-10-13T09:55:56;30.93;;;28.07;;
60306;SDS011;46155;52.364;6.580;2023-10-13T09:58:36;31.30;;;28.53;;
60306;SDS011;46155;52.364;6.580;2023-10-13T10:01:12;31.40;;;28.33;;
60306;SDS011;46155;52.364;6.580;2023-10-13T10:03:47;33.50;;;30.07;;
60306;SDS011;46155;52.364;6.580;2023-10-13T10:06:23;35.03;;;32.13;;
60306;SDS011;46155;52.364;6.580;2023-10-13T10:09:07;34.40;;;30.73;;
60306;SDS011;46155;52.364;6.580;2023-10-13T10:17:55;31.00;;;27.83;;
60306;SDS011;46155;52.364;6.580;2023-10-13T10:20:31;32.43;;;29.07;;
60306;SDS011;46155;52.364;6.580;2023-10-13T10:22:58;32.53;;;29.80;;
60306;SDS011;46155;52.364;6.580;2023-10-13T10:25:28;30.13;;;27.73;;
60306;SDS011;46155;52.364;6.580;2023-10-13T10:28:00;29.10;;;26.33;;
60306;SDS011;46155;52.364;6.580;2023-10-13T10:30:30;23.87;;;21.03;;
60306;SDS011;46155;52.364;6.580;2023-10-13T10:32:58;24.23;;;22.00;;
60306;SDS011;46155;52.364;6.580;2023-10-13T10:35:25;28.27;;;23.87;;
60306;SDS011;46155;52.364;6.580;2023-10-13T10:41:02;24.63;;;22.67;;
60306;SDS011;46155;52.364;6.580;2023-10-13T10:46:13;23.10;;;20.83;;
60306;SDS011;46155;52.364;6.580;2023-10-13T10:48:52;24.47;;;21.97;;
60306;SDS011;46155;52.364;6.580;2023-10-13T10:51:25;25.83;;;23.30;;
60306;SDS011;46155;52.364;6.580;2023-10-13T10:53:56;23.07;;;20.40;;
60306;SDS011;46155;52.364;6.580;2023-10-13T10:56:23;24.80;;;21.27;;
60306;SDS011;46155;52.364;6.580;2023-10-13T10:59:02;24.83;;;22.20;;
60306;SDS011;46155;52.364;6.580;2023-10-13T11:01:29;23.30;;;20.63;;
60306;SDS011;46155;52.364;6.580;2023-10-13T11:04:03;25.20;;;20.80;;
60306;SDS011;46155;52.364;6.580;2023-10-13T11:06:36;23.90;;;21.47;;
60306;SDS011;46155;52.364;6.580;2023-10-13T11:09:07;24.57;;;19.20;;
60306;SDS011;46155;52.364;6.580;2023-10-13T11:11:51;25.77;;;20.37;;
60306;SDS011;46155;52.364;6.580;2023-10-13T11:14:22;21.53;;;19.33;;
60306;SDS011;46155;52.364;6.580;2023-10-13T11:16:48;25.23;;;17.50;;
60306;SDS011;46155;52.364;6.580;2023-10-13T11:19:37;24.33;;;18.17;;
60306;SDS011;46155;52.364;6.580;2023-10-13T11:22:10;20.13;;;15.23;;
60306;SDS011;46155;52.364;6.580;2023-10-13T11:24:39;19.07;;;16.27;;
60306;SDS011;46155;52.364;6.580;2023-10-13T11:27:13;18.90;;;15.30;;
60306;SDS011;46155;52.364;6.580;2023-10-13T11:29:41;20.83;;;14.37;;
60306;SDS011;46155;52.364;6.580;2023-10-13T11:32:06;18.73;;;13.93;;
60306;SDS011;46155;52.364;6.580;2023-10-13T11:34:32;21.93;;;15.63;;
60306;SDS011;46155;52.364;6.580;2023-10-13T11:37:06;25.13;;;15.27;;
60306;SDS011;46155;52.364;6.580;2023-10-13T11:39:50;22.57;;;15.93;;
60306;SDS011;46155;52.364;6.580;2023-10-13T11:42:16;18.70;;;13.90;;
60306;SDS011;46155;52.364;6.580;2023-10-13T11:44:42;21.70;;;13.17;;
60306;SDS011;46155;52.364;6.580;2023-10-13T11:47:08;17.13;;;12.80;;
60306;SDS011;46155;52.364;6.580;2023-10-13T11:49:57;17.07;;;13.20;;
60306;SDS011;46155;52.364;6.580;2023-10-13T11:52:23;15.87;;;12.20;;
60306;SDS011;46155;52.364;6.580;2023-10-13T11:54:51;24.80;;;11.70;;
60306;SDS011;46155;52.364;6.580;2023-10-13T11:57:16;18.97;;;13.17;;
60306;SDS011;46155;52.364;6.580;2023-10-13T11:59:44;27.40;;;12.83;;
60306;SDS011;46155;52.364;6.580;2023-10-13T12:02:17;18.90;;;12.63;;
60306;SDS011;46155;52.364;6.580;2023-10-13T12:04:51;18.90;;;13.37;;
60306;SDS011;46155;52.364;6.580;2023-10-13T12:07:19;18.97;;;12.57;;
60306;SDS011;46155;52.364;6.580;2023-10-13T12:09:45;19.03;;;12.10;;
60306;SDS011;46155;52.364;6.580;2023-10-13T12:12:21;19.37;;;11.30;;
60306;SDS011;46155;52.364;6.580;2023-10-13T12:14:47;16.13;;;12.53;;
60306;SDS011;46155;52.364;6.580;2023-10-13T12:17:20;17.20;;;11.37;;
60306;SDS011;46155;52.364;6.580;2023-10-13T12:20:04;19.70;;;12.20;;
60306;SDS011;46155;52.364;6.580;2023-10-13T12:22:34;26.63;;;11.20;;
60306;SDS011;46155;52.364;6.580;2023-10-13T12:25:10;29.27;;;12.40;;
60306;SDS011;46155;52.364;6.580;2023-10-13T12:27:59;13.73;;;11.63;;
60306;SDS011;46155;52.364;6.580;2023-10-13T12:30:44;18.83;;;11.07;;
60306;SDS011;46155;52.364;6.580;2023-10-13T12:33:18;20.73;;;12.83;;
60306;SDS011;46155;52.364;6.580;2023-10-13T12:35:59;25.33;;;12.37;;
60306;SDS011;46155;52.364;6.580;2023-10-13T12:38:55;17.77;;;11.70;;
60306;SDS011;46155;52.364;6.580;2023-10-13T12:41:33;21.47;;;10.93;;
60306;SDS011;46155;52.364;6.580;2023-10-13T12:44:16;17.93;;;10.57;;
60306;SDS011;46155;52.364;6.580;2023-10-13T12:47:00;21.13;;;10.93;;
60306;SDS011;46155;52.364;6.580;2023-10-13T12:49:44;20.70;;;12.00;;
60306;SDS011;46155;52.364;6.580;2023-10-13T12:52:10;16.27;;;11.00;;
60306;SDS011;46155;52.364;6.580;2023-10-13T12:54:44;19.07;;;11.33;;
60306;SDS011;46155;52.364;6.580;2023-10-13T12:57:33;17.10;;;10.27;;
60306;SDS011;46155;52.364;6.580;2023-10-13T12:59:59;17.47;;;12.27;;
60306;SDS011;46155;52.364;6.580;2023-10-13T13:02:24;17.17;;;10.43;;
60306;SDS011;46155;52.364;6.580;2023-10-13T13:04:51;15.80;;;10.30;;
60306;SDS011;46155;52.364;6.580;2023-10-13T13:07:22;30.20;;;10.30;;
60306;SDS011;46155;52.364;6.580;2023-10-13T13:09:48;18.43;;;10.73;;
60306;SDS011;46155;52.364;6.580;2023-10-13T13:12:13;18.00;;;10.93;;
60306;SDS011;46155;52.364;6.580;2023-10-13T13:14:38;21.03;;;10.67;;
60306;SDS011;46155;52.364;6.580;2023-10-13T13:17:06;20.00;;;10.87;;
60306;SDS011;46155;52.364;6.580;2023-10-13T13:19:35;17.43;;;11.10;;
60306;SDS011;46155;52.364;6.580;2023-10-13T13:22:04;24.53;;;10.97;;
60306;SDS011;46155;52.364;6.580;2023-10-13T13:24:30;20.43;;;10.40;;
60306;SDS011;46155;52.364;6.580;2023-10-13T13:26:57;22.23;;;10.97;;
60306;SDS011;46155;52.364;6.580;2023-10-13T13:29:27;19.53;;;11.10;;
60306;SDS011;46155;52.364;6.580;2023-10-13T13:31:54;21.23;;;10.83;;
60306;SDS011;46155;52.364;6.580;2023-10-13T13:34:20;19.13;;;11.50;;
60306;SDS011;46155;52.364;6.580;2023-10-13T13:36:46;15.43;;;11.73;;
60306;SDS011;46155;52.364;6.580;2023-10-13T13:39:17;20.87;;;10.30;;
60306;SDS011;46155;52.364;6.580;2023-10-13T13:41:54;17.90;;;10.03;;
60306;SDS011;46155;52.364;6.580;2023-10-13T13:44:22;22.03;;;11.20;;
60306;SDS011;46155;52.364;6.580;2023-10-13T13:46:54;19.63;;;10.90;;
60306;SDS011;46155;52.364;6.580;2023-10-13T13:49:22;16.03;;;10.10;;
60306;SDS011;46155;52.364;6.580;2023-10-13T13:51:55;16.93;;;11.03;;
60306;SDS011;46155;52.364;6.580;2023-10-13T13:54:21;15.63;;;10.57;;
60306;SDS011;46155;52.364;6.580;2023-10-13T13:56:46;20.30;;;11.43;;
60306;SDS011;46155;52.364;6.580;2023-10-13T13:59:12;19.97;;;11.33;;
60306;SDS011;46155;52.364;6.580;2023-10-13T14:01:41;20.60;;;10.57;;
60306;SDS011;46155;52.364;6.580;2023-10-13T14:04:10;19.67;;;11.80;;
60306;SDS011;46155;52.364;6.580;2023-10-13T14:06:36;25.13;;;12.17;;
60306;SDS011;46155;52.364;6.580;2023-10-13T14:09:02;18.80;;;11.97;;
60306;SDS011;46155;52.364;6.580;2023-10-13T14:11:39;20.03;;;12.53;;
60306;SDS011;46155;52.364;6.580;2023-10-13T14:14:05;18.27;;;12.53;;
60306;SDS011;46155;52.364;6.580;2023-10-13T14:16:37;20.37;;;13.27;;
60306;SDS011;46155;52.364;6.580;2023-10-13T14:19:03;19.07;;;12.40;;
60306;SDS011;46155;52.364;6.580;2023-10-13T14:21:32;22.90;;;12.67;;
60306;SDS011;46155;52.364;6.580;2023-10-13T14:24:00;21.90;;;13.50;;
60306;SDS011;46155;52.364;6.580;2023-10-13T14:26:26;19.63;;;13.73;;
60306;SDS011;46155;52.364;6.580;2023-10-13T14:28:52;24.00;;;13.90;;
60306;SDS011;46155;52.364;6.580;2023-10-13T14:31:28;22.70;;;13.33;;
60306;SDS011;46155;52.364;6.580;2023-10-13T14:33:54;23.87;;;13.73;;
60306;SDS011;46155;52.364;6.580;2023-10-13T14:36:19;26.30;;;14.40;;
60306;SDS011;46155;52.364;6.580;2023-10-13T14:38:45;16.83;;;15.07;;
60306;SDS011;46155;52.364;6.580;2023-10-13T14:41:14;21.67;;;15.57;;
60306;SDS011;46155;52.364;6.580;2023-10-13T14:43:44;23.37;;;14.60;;
60306;SDS011;46155;52.364;6.580;2023-10-13T14:46:19;21.47;;;16.30;;
60306;SDS011;46155;52.364;6.580;2023-10-13T14:48:48;25.13;;;16.17;;
60306;SDS011;46155;52.364;6.580;2023-10-13T14:51:17;24.30;;;14.80;;
60306;SDS011;46155;52.364;6.580;2023-10-13T14:53:43;20.73;;;14.63;;
60306;SDS011;46155;52.364;6.580;2023-10-13T14:56:10;22.97;;;17.07;;
60306;SDS011;46155;52.364;6.580;2023-10-13T14:58:36;23.50;;;16.67;;
60306;SDS011;46155;52.364;6.580;2023-10-13T15:01:10;28.60;;;18.30;;
60306;SDS011;46155;52.364;6.580;2023-10-13T15:03:50;28.17;;;18.17;;
60306;SDS011;46155;52.364;6.580;2023-10-13T15:06:26;25.13;;;20.47;;
60306;SDS011;46155;52.364;6.580;2023-10-13T15:08:56;23.37;;;19.23;;
60306;SDS011;46155;52.364;6.580;2023-10-13T15:11:23;20.40;;;16.97;;
60306;SDS011;46155;52.364;6.580;2023-10-13T15:13:55;25.87;;;16.93;;
60306;SDS011;46155;52.364;6.580;2023-10-13T15:16:24;20.93;;;18.80;;
60306;SDS011;46155;52.364;6.580;2023-10-13T15:18:52;22.20;;;18.03;;
60306;SDS011;46155;52.364;6.580;2023-10-13T15:21:35;29.50;;;17.80;;
60306;SDS011;46155;52.364;6.580;2023-10-13T15:24:01;21.90;;;19.53;;
60306;SDS011;46155;52.364;6.580;2023-10-13T15:26:41;22.17;;;18.67;;
60306;SDS011;46155;52.364;6.580;2023-10-13T15:29:13;20.60;;;18.63;;
60306;SDS011;46155;52.364;6.580;2023-10-13T15:31:41;24.20;;;18.93;;
60306;SDS011;46155;52.364;6.580;2023-10-13T15:34:25;26.03;;;19.33;;
60306;SDS011;46155;52.364;6.580;2023-10-13T15:36:54;23.47;;;19.80;;
60306;SDS011;46155;52.364;6.580;2023-10-13T15:39:21;23.10;;;20.63;;
60306;SDS011;46155;52.364;6.580;2023-10-13T15:41:52;23.43;;;21.00;;
60306;SDS011;46155;52.364;6.580;2023-10-13T15:44:18;22.37;;;19.67;;
60306;SDS011;46155;52.364;6.580;2023-10-13T15:46:49;21.77;;;19.63;;
60306;SDS011;46155;52.364;6.580;2023-10-13T15:49:17;24.10;;;20.50;;
60306;SDS011;46155;52.364;6.580;2023-10-13T15:51:43;23.87;;;21.37;;
60306;SDS011;46155;52.364;6.580;2023-10-13T15:54:08;29.83;;;22.87;;
60306;SDS011;46155;52.364;6.580;2023-10-13T15:56:43;30.37;;;24.30;;
60306;SDS011;46155;52.364;6.580;2023-10-13T15:59:09;27.23;;;24.40;;
60306;SDS011;46155;52.364;6.580;2023-10-13T16:01:34;33.13;;;25.73;;
60306;SDS011;46155;52.364;6.580;2023-10-13T16:04:00;31.67;;;27.10;;
60306;SDS011;46155;52.364;6.580;2023-10-13T16:06:33;30.07;;;24.37;;
60306;SDS011;46155;52.364;6.580;2023-10-13T16:08:58;26.67;;;24.23;;
60306;SDS011;46155;52.364;6.580;2023-10-13T16:11:24;27.67;;;24.73;;
60306;SDS011;46155;52.364;6.580;2023-10-13T16:13:49;31.90;;;28.27;;
60306;SDS011;46155;52.364;6.580;2023-10-13T16:16:22;29.27;;;26.40;;
60306;SDS011;46155;52.364;6.580;2023-10-13T16:18:51;31.37;;;28.47;;
60306;SDS011;46155;52.364;6.580;2023-10-13T16:21:18;33.53;;;29.97;;
60306;SDS011;46155;52.364;6.580;2023-10-13T16:23:45;32.13;;;28.53;;
60306;SDS011;46155;52.364;6.580;2023-10-13T16:26:19;33.30;;;30.10;;
60306;SDS011;46155;52.364;6.580;2023-10-13T16:28:48;32.57;;;29.53;;
60306;SDS011;46155;52.364;6.580;2023-10-13T16:31:13;32.07;;;28.47;;
60306;SDS011;46155;52.364;6.580;2023-10-13T16:33:39;31.57;;;28.87;;
60306;SDS011;46155;52.364;6.580;2023-10-13T16:36:07;33.40;;;27.27;;
60306;SDS011;46155;52.364;6.580;2023-10-13T16:38:36;29.17;;;26.40;;
60306;SDS011;46155;52.364;6.580;2023-10-13T16:41:02;30.63;;;27.80;;
60306;SDS011;46155;52.364;6.580;2023-10-13T16:43:37;30.23;;;27.10;;
60306;SDS011;46155;52.364;6.580;2023-10-13T16:46:05;30.83;;;27.20;;
60306;SDS011;46155;52.364;6.580;2023-10-13T16:48:37;30.30;;;27.53;;
60306;SDS011;46155;52.364;6.580;2023-10-13T16:51:03;34.20;;;30.90;;
60306;SDS011;46155;52.364;6.580;2023-10-13T16:53:30;33.10;;;29.67;;
60306;SDS011;46155;52.364;6.580;2023-10-13T16:55:57;29.97;;;27.00;;
60306;SDS011;46155;52.364;6.580;2023-10-13T16:58:23;29.60;;;26.63;;
60306;SDS011;46155;52.364;6.580;2023-10-13T17:00:48;34.70;;;27.57;;
60306;SDS011;46155;52.364;6.580;2023-10-13T17:03:17;31.13;;;28.20;;
60306;SDS011;46155;52.364;6.580;2023-10-13T17:05:54;32.17;;;28.90;;
60306;SDS011;46155;52.364;6.580;2023-10-13T17:08:20;32.23;;;29.00;;
60306;SDS011;46155;52.364;6.580;2023-10-13T17:10:45;32.87;;;30.00;;
60306;SDS011;46155;52.364;6.580;2023-10-13T17:13:13;36.80;;;33.00;;
60306;SDS011;46155;52.364;6.580;2023-10-13T17:15:38;38.07;;;34.50;;
60306;SDS011;46155;52.364;6.580;2023-10-13T17:18:04;38.13;;;34.43;;
60306;SDS011;46155;52.364;6.580;2023-10-13T17:20:34;37.33;;;33.43;;
60306;SDS011;46155;52.364;6.580;2023-10-13T17:23:01;38.53;;;34.70;;
60306;SDS011;46155;52.364;6.580;2023-10-13T17:25:27;36.43;;;33.00;;
60306;SDS011;46155;52.364;6.580;2023-10-13T17:27:52;36.60;;;33.30;;
60306;SDS011;46155;52.364;6.580;2023-10-13T17:30:18;42.80;;;30.47;;
60306;SDS011;46155;52.364;6.580;2023-10-13T17:32:43;33.00;;;30.30;;
60306;SDS011;46155;52.364;6.580;2023-10-13T17:35:09;33.77;;;31.13;;
60306;SDS011;46155;52.364;6.580;2023-10-13T17:37:37;33.83;;;30.23;;
60306;SDS011;46155;52.364;6.580;2023-10-13T17:40:07;35.20;;;31.50;;
60306;SDS011;46155;52.364;6.580;2023-10-13T17:42:40;35.07;;;31.60;;
60306;SDS011;46155;52.364;6.580;2023-10-13T17:45:06;37.30;;;33.37;;
60306;SDS011;46155;52.364;6.580;2023-10-13T17:47:31;34.20;;;30.63;;
60306;SDS011;46155;52.364;6.580;2023-10-13T17:49:57;34.37;;;31.17;;
60306;SDS011;46155;52.364;6.580;2023-10-13T17:52:25;35.40;;;31.77;;
60306;SDS011;46155;52.364;6.580;2023-10-13T17:54:51;40.73;;;35.87;;
60306;SDS011;46155;52.364;6.580;2023-10-13T17:57:17;38.77;;;35.40;;
60306;SDS011;46155;52.364;6.580;2023-10-13T17:59:42;40.83;;;36.67;;
60306;SDS011;46155;52.364;6.580;2023-10-13T18:02:11;38.83;;;35.03;;
60306;SDS011;46155;52.364;6.580;2023-10-13T18:04:39;42.50;;;38.70;;
60306;SDS011;46155;52.364;6.580;2023-10-13T18:07:06;43.33;;;39.93;;
60306;SDS011;46155;52.364;6.580;2023-10-13T18:09:32;44.83;;;40.93;;
60306;SDS011;46155;52.364;6.580;2023-10-13T18:11:58;44.83;;;40.93;;
60306;SDS011;46155;52.364;6.580;2023-10-13T18:14:24;43.17;;;39.70;;
60306;SDS011;46155;52.364;6.580;2023-10-13T18:16:49;46.83;;;42.80;;
60306;SDS011;46155;52.364;6.580;2023-10-13T18:19:15;45.00;;;41.13;;
60306;SDS011;46155;52.364;6.580;2023-10-13T18:21:44;42.27;;;38.47;;
60306;SDS011;46155;52.364;6.580;2023-10-13T18:24:11;38.93;;;35.07;;
60306;SDS011;46155;52.364;6.580;2023-10-13T18:26:36;44.20;;;39.93;;
60306;SDS011;46155;52.364;6.580;2023-10-13T18:29:02;42.67;;;38.80;;